Time;durP1;ratioP1;P1;durP2;ratioP2;P2;SDS_P1;SDS_P2;PMS_P1;PMS_P2;Temp;Humidity;BMP_temperature;BMP_pressure;BME280_temperature;BME280_humidity;BME280_pressure;Samples;Min_cycle;Max_cycle;Signal;HPM_P1;HPM_P2
2020/12/27 00:00:57;;;;;;;20.32;12.18;;;;;;;1.30;84.44;101037.20;1860621;77;21668;-78
2020/12/27 00:03:24;;;;;;;20.12;11.80;;;;;;;1.34;84.42;101032.30;1860748;77;21191;-78
2020/12/27 00:05:51;;;;;;;22.17;12.82;;;;;;;1.34;84.36;101025.81;1860804;77;22079;-78
2020/12/27 00:08:18;;;;;;;19.60;12.58;;;;;;;1.39;84.39;101030.03;1860672;77;21184;-78
2020/12/27 00:10:47;;;;;;;20.32;12.35;;;;;;;1.43;84.36;101024.66;1860857;77;21617;-78
2020/12/27 00:13:14;;;;;;;20.97;12.43;;;;;;;1.46;84.28;101025.72;1860811;77;21194;-78
2020/12/27 00:15:42;;;;;;;22.30;12.82;;;;;;;1.48;84.22;101019.34;1860797;77;21200;-77
2020/12/27 00:18:09;;;;;;;22.98;11.65;;;;;;;1.52;84.20;101014.84;1832770;77;22379;-78
2020/12/27 00:20:38;;;;;;;20.20;11.57;;;;;;;1.54;84.14;101012.87;1860785;77;21230;-79
2020/12/27 00:23:05;;;;;;;23.80;12.58;;;;;;;1.58;84.08;101015.27;1860774;77;21203;-79
2020/12/27 00:25:33;;;;;;;27.40;16.50;;;;;;;1.59;84.00;101009.67;1860869;77;21364;-79
2020/12/27 00:28:00;;;;;;;24.60;14.25;;;;;;;1.62;84.00;101017.27;1860765;77;21159;-79
2020/12/27 00:30:27;;;;;;;23.87;11.93;;;;;;;1.65;83.95;101012.28;1860796;77;21885;-78
2020/12/27 00:32:56;;;;;;;25.12;13.32;;;;;;;1.65;83.83;101003.20;1860805;77;21100;-79
2020/12/27 00:35:23;;;;;;;22.40;13.03;;;;;;;1.66;83.78;100999.79;1859371;77;21124;-79
2020/12/27 00:37:50;;;;;;;24.60;13.13;;;;;;;1.67;83.72;100987.33;1857534;77;21081;-79
2020/12/27 00:40:17;;;;;;;21.75;12.82;;;;;;;1.69;83.68;100988.33;1857500;77;21586;-79
2020/12/27 00:42:44;;;;;;;23.18;13.58;;;;;;;1.72;83.65;100986.31;1857485;77;21760;-79
2020/12/27 00:45:11;;;;;;;23.35;13.10;;;;;;;1.72;83.65;100986.31;1857426;76;21610;-79
2020/12/27 00:47:38;;;;;;;21.73;12.85;;;;;;;1.74;83.56;100992.49;1857543;77;21175;-78
2020/12/27 00:50:10;;;;;;;26.00;13.60;;;;;;;1.72;83.51;100983.31;1857289;76;21234;-78
2020/12/27 00:52:41;;;;;;;20.95;13.32;;;;;;;1.72;83.45;100991.50;1857655;77;21233;-79
2020/12/27 00:55:14;;;;;;;23.05;12.90;;;;;;;1.71;83.45;100989.31;1857434;77;21886;-78
2020/12/27 00:57:40;;;;;;;21.15;14.03;;;;;;;1.70;83.41;100981.02;1787397;80;21248;-79
2020/12/27 01:00:09;;;;;;;23.90;14.18;;;;;;;1.71;83.46;100978.05;1759446;80;21218;-78
2020/12/27 01:02:36;;;;;;;25.40;14.70;;;;;;;1.72;83.46;100977.23;1786272;80;21246;-78
2020/12/27 01:05:03;;;;;;;26.10;14.45;;;;;;;1.73;83.48;100974.73;1787723;80;21200;-78
2020/12/27 01:07:30;;;;;;;26.20;15.90;;;;;;;1.74;83.43;100972.63;1787640;80;21887;-79
2020/12/27 01:09:57;;;;;;;25.70;15.55;;;;;;;1.77;83.49;100969.34;1787708;80;21218;-79
2020/12/27 01:12:24;;;;;;;25.62;15.83;;;;;;;1.79;83.35;100972.05;1787633;80;21136;-78
2020/12/27 01:14:51;;;;;;;25.12;14.43;;;;;;;1.80;83.45;100962.14;1787792;80;21092;-78
2020/12/27 01:17:19;;;;;;;23.85;14.65;;;;;;;1.83;83.42;100969.73;1787769;79;21144;-78
2020/12/27 01:19:46;;;;;;;23.15;13.80;;;;;;;1.85;83.33;100962.04;1787732;80;21921;-79
2020/12/27 01:22:13;;;;;;;23.05;15.38;;;;;;;1.86;83.33;100967.34;1787586;80;21211;-79
2020/12/27 01:24:40;;;;;;;22.45;14.53;;;;;;;1.86;83.27;100958.25;1787679;79;21594;-78
2020/12/27 01:27:07;;;;;;;24.40;15.53;;;;;;;1.87;83.28;100955.25;1787656;80;21245;-78
2020/12/27 01:29:36;;;;;;;25.77;15.90;;;;;;;1.88;83.21;100955.76;1787686;80;21180;-78
2020/12/27 01:32:03;;;;;;;25.77;15.32;;;;;;;1.88;83.24;100950.16;1758913;80;23520;-79
2020/12/27 01:34:31;;;;;;;28.27;15.35;;;;;;;1.91;83.21;100957.23;1759319;80;21207;-79
2020/12/27 01:36:58;;;;;;;27.15;16.17;;;;;;;1.92;83.20;100947.36;1789552;80;21232;-79
2020/12/27 01:39:26;;;;;;;25.97;15.45;;;;;;;1.93;83.19;100942.64;1742245;80;21263;-79
2020/12/27 01:41:53;;;;;;;23.75;14.95;;;;;;;1.93;83.15;100942.64;1791696;80;21202;-79
2020/12/27 01:44:21;;;;;;;24.70;15.80;;;;;;;1.94;83.16;100934.07;1767221;80;22101;-79
2020/12/27 01:46:48;;;;;;;26.85;17.52;;;;;;;1.92;83.04;100937.86;1791721;80;21143;-78
2020/12/27 01:49:16;;;;;;;23.00;15.98;;;;;;;1.90;83.03;100918.70;1791727;80;21207;-79
2020/12/27 01:51:43;;;;;;;21.77;15.45;;;;;;;1.90;83.11;100915.22;1791507;80;21332;-79
2020/12/27 01:54:11;;;;;;;26.20;14.58;;;;;;;1.90;83.04;100908.31;1791644;80;21633;-79
2020/12/27 01:56:42;;;;;;;22.87;16.12;;;;;;;1.92;83.08;100904.52;1791523;80;22051;-79
2020/12/27 01:59:12;;;;;;;27.82;16.02;;;;;;;1.92;83.04;100901.52;1767697;80;21577;-79
2020/12/27 02:01:39;;;;;;;22.50;15.58;;;;;;;1.96;83.13;100895.23;1791322;80;21160;-78
2020/12/27 02:04:06;;;;;;;19.42;14.28;;;;;;;1.95;83.04;100887.81;1791470;80;21207;-78
2020/12/27 02:06:33;;;;;;;28.20;16.62;;;;;;;1.93;82.92;100877.75;1791699;80;21215;-78
2020/12/27 02:09:08;;;;;;;22.98;14.73;;;;;;;1.93;82.96;100870.87;1791631;80;21899;-78
2020/12/27 02:11:35;;;;;;;21.48;14.58;;;;;;;1.92;82.87;100870.37;1791784;80;21179;-76
2020/12/27 02:14:02;;;;;;;27.85;14.95;;;;;;;1.94;82.92;100867.46;1791762;80;21112;-76
2020/12/27 02:16:31;;;;;;;22.32;13.93;;;;;;;1.93;82.86;100863.47;1742214;80;21191;-76
2020/12/27 02:21:39;;;;;;;22.90;15.03;;;;;;;1.98;82.83;100840.41;1888502;75;22733;-76
2020/12/27 02:24:07;;;;;;;20.05;13.40;;;;;;;1.92;82.77;100840.92;1856599;77;21169;-77
2020/12/27 02:26:34;;;;;;;19.30;13.20;;;;;;;1.93;82.78;100832.31;1856633;77;21879;-76
2020/12/27 02:29:01;;;;;;;22.35;13.98;;;;;;;1.92;82.64;100822.75;1856489;77;21683;-77
2020/12/27 02:31:28;;;;;;;21.23;14.55;;;;;;;1.91;82.63;100824.84;1789963;77;21630;-77
2020/12/27 02:33:57;;;;;;;20.15;14.23;;;;;;;1.87;82.57;100826.35;1856803;77;21083;-77
2020/12/27 02:36:24;;;;;;;21.68;13.62;;;;;;;1.84;82.48;100829.16;1856825;77;21114;-77
2020/12/27 02:39:08;;;;;;;21.42;14.00;;;;;;;1.80;82.54;100820.28;1856775;77;22888;-77
2020/12/27 02:41:42;;;;;;;19.87;12.93;;;;;;;1.81;82.63;100828.99;1856789;77;21143;-77
2020/12/27 02:44:13;;;;;;;22.27;13.93;;;;;;;1.83;82.59;100821.78;1856862;77;21155;-76
2020/12/27 02:46:40;;;;;;;21.93;13.22;;;;;;;1.83;82.55;100811.81;1856597;77;21170;-77
2020/12/27 02:49:07;;;;;;;18.85;12.95;;;;;;;1.82;82.57;100816.49;1856696;77;21154;-77
2020/12/27 02:51:59;;;;;;;19.12;12.65;;;;;;;1.83;82.54;100802.73;1856728;77;21871;-78
2020/12/27 02:54:26;;;;;;;21.33;12.50;;;;;;;1.80;82.43;100798.64;1773100;80;21179;-77
2020/12/27 02:56:53;;;;;;;20.08;12.90;;;;;;;1.76;82.34;100788.47;1773203;80;21233;-77
2020/12/27 02:59:20;;;;;;;20.05;13.08;;;;;;;1.72;82.36;100796.87;1773095;80;21270;-79
2020/12/27 03:01:48;;;;;;;21.07;12.70;;;;;;;1.70;82.29;100795.89;1773372;80;21287;-78
2020/12/27 03:04:15;;;;;;;22.37;13.48;;;;;;;1.65;82.26;100790.80;1773173;80;22073;-78
2020/12/27 03:06:42;;;;;;;19.73;13.25;;;;;;;1.60;82.23;100790.95;1773176;80;21685;-77
2020/12/27 03:09:09;;;;;;;22.35;13.62;;;;;;;1.56;82.24;100784.67;1773125;80;21729;-77
2020/12/27 03:11:36;;;;;;;20.68;12.15;;;;;;;1.51;82.22;100778.30;1773225;80;21678;-78
2020/12/27 03:14:03;;;;;;;24.10;12.63;;;;;;;1.48;82.26;100770.31;1773127;80;21270;-78
2020/12/27 03:16:30;;;;;;;23.10;12.85;;;;;;;1.42;82.14;100763.05;1773155;80;22163;-78
2020/12/27 03:18:57;;;;;;;21.25;12.63;;;;;;;1.33;82.04;100759.51;1773059;80;21211;-77
2020/12/27 03:21:24;;;;;;;23.02;12.25;;;;;;;1.25;82.02;100755.94;1773140;80;21274;-77
2020/12/27 03:23:51;;;;;;;21.20;11.95;;;;;;;1.16;82.00;100749.77;1773211;80;21434;-78
2020/12/27 03:26:18;;;;;;;23.92;12.90;;;;;;;1.05;81.95;100733.94;1773209;80;21192;-78
2020/12/27 03:28:45;;;;;;;19.85;11.88;;;;;;;0.97;82.07;100734.34;1773277;80;21945;-78
2020/12/27 03:31:13;;;;;;;23.83;12.43;;;;;;;0.91;82.14;100737.85;1789831;78;21237;-77
2020/12/27 03:33:41;;;;;;;21.70;12.88;;;;;;;0.88;82.24;100736.38;1819097;78;21248;-77
2020/12/27 03:36:07;;;;;;;19.45;13.00;;;;;;;0.85;82.24;100723.62;1818980;78;21177;-77
2020/12/27 03:38:34;;;;;;;24.20;12.75;;;;;;;0.81;82.26;100722.53;1819368;78;21195;-77
2020/12/27 03:41:01;;;;;;;18.42;11.57;;;;;;;0.75;82.31;100723.42;1818996;78;21871;-77
2020/12/27 03:43:28;;;;;;;17.85;11.70;;;;;;;0.70;82.33;100714.08;1818922;78;21216;-77
2020/12/27 03:45:55;;;;;;;21.80;12.28;;;;;;;0.66;82.40;100717.27;1818982;78;21556;-76
2020/12/27 03:48:23;;;;;;;19.52;12.10;;;;;;;0.63;82.40;100727.42;1818904;78;21172;-76
2020/12/27 03:50:50;;;;;;;20.85;11.48;;;;;;;0.60;82.40;100721.15;1819156;78;21203;-77
2020/12/27 03:53:17;;;;;;;20.20;12.40;;;;;;;0.56;82.46;100709.69;1817730;78;21870;-77
2020/12/27 03:55:44;;;;;;;24.55;12.50;;;;;;;0.50;82.47;100706.72;1816399;78;21147;-77
2020/12/27 03:58:11;;;;;;;18.45;10.78;;;;;;;0.43;82.40;100704.52;1816373;79;21208;-77
2020/12/27 04:00:38;;;;;;;19.25;12.40;;;;;;;0.35;82.43;100701.03;1816278;78;21181;-77
2020/12/27 04:03:05;;;;;;;20.85;12.20;;;;;;;0.31;82.57;100698.16;1816460;79;21650;-76
2020/12/27 04:05:34;;;;;;;21.60;12.05;;;;;;;0.29;82.63;100693.28;1816478;79;21868;-77
2020/12/27 04:08:01;;;;;;;24.23;12.73;;;;;;;0.25;82.69;100687.01;1816292;79;21248;-77
2020/12/27 04:10:29;;;;;;;17.65;11.30;;;;;;;0.22;82.73;100685.91;1816485;79;21200;-77
2020/12/27 04:12:56;;;;;;;21.40;12.23;;;;;;;0.19;82.80;100678.85;1816348;78;21524;-78
2020/12/27 04:15:23;;;;;;;21.45;12.10;;;;;;;0.17;82.77;100689.09;1816413;79;21141;-77
2020/12/27 04:17:50;;;;;;;22.70;12.35;;;;;;;0.12;82.79;100690.48;1816432;78;21813;-77
2020/12/27 04:20:17;;;;;;;23.75;12.53;;;;;;;0.10;82.81;100684.72;1816325;79;21658;-77
2020/12/27 04:22:44;;;;;;;21.90;12.18;;;;;;;0.08;82.86;100684.61;1816412;78;21181;-77
2020/12/27 04:25:11;;;;;;;18.48;11.15;;;;;;;0.05;82.90;100679.22;1816298;79;21753;-77
2020/12/27 04:27:38;;;;;;;21.55;11.90;;;;;;;0.03;82.91;100683.81;1816385;78;21192;-77
2020/12/27 04:30:05;;;;;;;20.02;11.50;;;;;;;0.03;82.99;100678.63;1816396;79;21879;-78
2020/12/27 04:32:32;;;;;;;27.05;14.43;;;;;;;0.01;83.03;100679.82;1816317;78;21607;-78
2020/12/27 04:34:59;;;;;;;17.40;11.70;;;;;;;-0.02;83.00;100674.06;1816462;78;21228;-78
2020/12/27 04:37:26;;;;;;;20.57;12.07;;;;;;;-0.02;83.06;100679.23;1816411;79;21240;-78
2020/12/27 04:39:53;;;;;;;19.37;11.90;;;;;;;-0.04;83.05;100673.44;1816493;78;21153;-77
2020/12/27 04:42:21;;;;;;;22.27;11.25;;;;;;;-0.06;83.09;100665.56;1816424;78;22082;-78
2020/12/27 04:44:48;;;;;;;18.32;10.85;;;;;;;-0.08;83.10;100667.16;1816459;78;21189;-78
2020/12/27 04:47:15;;;;;;;20.02;11.75;;;;;;;-0.10;83.12;100671.75;1816478;79;21250;-78
2020/12/27 04:49:43;;;;;;;23.30;11.00;;;;;;;-0.10;83.17;100664.88;1816449;79;21236;-77
2020/12/27 04:52:12;;;;;;;20.23;12.10;;;;;;;-0.11;83.16;100667.35;1816468;78;21184;-77
2020/12/27 04:54:39;;;;;;;26.20;12.70;;;;;;;-0.14;83.18;100665.88;1818784;78;21867;-78
2020/12/27 04:57:06;;;;;;;24.82;11.80;;;;;;;-0.15;83.21;100665.36;1818975;78;21274;-78
2020/12/27 04:59:33;;;;;;;18.20;11.50;;;;;;;-0.15;83.19;100670.16;1819209;78;21200;-78
2020/12/27 05:02:01;;;;;;;22.45;12.65;;;;;;;-0.17;83.13;100665.66;1818866;78;21228;-77
2020/12/27 05:04:28;;;;;;;21.97;12.25;;;;;;;-0.20;83.15;100659.49;1818874;78;21220;-77
2020/12/27 05:06:56;;;;;;;20.97;12.00;;;;;;;-0.22;83.13;100653.33;1819117;78;21871;-78
2020/12/27 05:09:27;;;;;;;20.55;11.83;;;;;;;-0.24;83.16;100652.33;1780364;80;21148;-78
2020/12/27 05:11:54;;;;;;;20.85;12.10;;;;;;;-0.26;83.14;100642.28;1761587;80;21059;-78
2020/12/27 05:14:27;;;;;;;22.42;11.90;;;;;;;-0.27;83.21;100648.64;1761513;80;21225;-78
2020/12/27 05:16:56;;;;;;;18.20;11.73;;;;;;;-0.28;83.23;100640.00;1761044;80;21529;-78
2020/12/27 05:19:24;;;;;;;21.48;12.33;;;;;;;-0.30;83.19;100640.66;1761538;81;21883;-78
2020/12/27 05:21:51;;;;;;;21.75;12.68;;;;;;;-0.31;83.27;100646.24;1761427;80;21173;-78
2020/12/27 05:24:21;;;;;;;22.42;11.68;;;;;;;-0.31;83.28;100642.77;1731192;80;21225;-78
2020/12/27 05:26:56;;;;;;;19.15;11.97;;;;;;;-0.34;83.23;100649.91;1746789;81;21640;-77
2020/12/27 05:29:35;;;;;;;20.97;12.28;;;;;;;-0.36;83.21;100648.91;1761606;80;21197;-77
2020/12/27 05:32:02;;;;;;;21.97;13.35;;;;;;;-0.36;83.27;100654.09;1761353;80;22840;-76
2020/12/27 05:34:30;;;;;;;27.52;15.55;;;;;;;-0.35;83.32;100657.19;1761371;80;21254;-78
2020/12/27 05:37:02;;;;;;;28.80;13.70;;;;;;;-0.36;83.29;100660.95;1761597;81;21143;-77
2020/12/27 05:39:29;;;;;;;20.00;12.50;;;;;;;-0.36;83.36;100655.78;1761417;81;21121;-77
2020/12/27 05:42:04;;;;;;;20.02;12.45;;;;;;;-0.36;83.36;100647.62;1735764;81;21122;-77
2020/12/27 05:44:33;;;;;;;23.67;13.75;;;;;;;-0.34;83.38;100653.78;1761516;81;23209;-77
2020/12/27 05:47:01;;;;;;;22.50;12.55;;;;;;;-0.34;83.42;100643.84;1761343;81;21216;-78
2020/12/27 05:49:28;;;;;;;23.07;13.38;;;;;;;-0.32;83.48;100652.23;1761387;81;21573;-77
2020/12/27 05:51:57;;;;;;;28.20;14.03;;;;;;;-0.30;83.49;100651.94;1761528;81;21106;-77
2020/12/27 05:54:36;;;;;;;31.73;17.37;;;;;;;-0.27;83.45;100649.94;1757259;80;21169;-78
2020/12/27 05:57:04;;;;;;;21.73;13.22;;;;;;;-0.25;83.45;100647.94;1755019;81;22868;-77
2020/12/27 05:59:35;;;;;;;21.65;13.05;;;;;;;-0.23;83.43;100641.58;1765103;81;21578;-77
2020/12/27 06:02:02;;;;;;;23.07;13.30;;;;;;;-0.20;83.43;100638.80;1765156;80;21252;-78
2020/12/27 06:04:57;;;;;;;22.30;12.90;;;;;;;-0.17;83.40;100626.86;1765294;81;21219;-77
2020/12/27 06:07:45;;;;;;;27.10;14.58;;;;;;;-0.18;83.31;100627.67;1765416;81;21241;-77
2020/12/27 06:10:21;;;;;;;24.47;14.43;;;;;;;-0.21;83.27;100616.33;1765259;81;22861;-78
2020/12/27 06:13:28;;;;;;;22.50;13.83;;;;;;;-0.21;83.25;100615.41;1765196;81;21282;-78
2020/12/27 06:15:59;;;;;;;24.90;14.98;;;;;;;-0.22;83.24;100605.47;1764109;80;21081;-78
2020/12/27 06:18:29;;;;;;;21.85;13.80;;;;;;;-0.19;83.26;100611.23;1765195;81;21216;-78
2020/12/27 06:21:10;;;;;;;23.07;13.13;;;;;;;-0.16;83.25;100608.86;1765259;81;21078;-78
2020/12/27 06:23:38;;;;;;;22.40;12.75;;;;;;;-0.16;83.20;100602.80;1765284;81;21229;-78
2020/12/27 06:26:06;;;;;;;20.72;13.22;;;;;;;-0.11;83.25;100621.70;1765151;81;21207;-78
2020/12/27 06:28:33;;;;;;;26.95;14.38;;;;;;;-0.09;83.14;100625.69;1765120;81;21142;-78
2020/12/27 06:31:09;;;;;;;29.35;14.73;;;;;;;-0.10;82.99;100620.89;1765170;81;21208;-78
2020/12/27 06:33:41;;;;;;;22.70;12.50;;;;;;;-0.10;82.94;100622.59;1765206;81;21228;-78
2020/12/27 06:36:29;;;;;;;21.87;12.50;;;;;;;-0.15;82.83;100622.30;1765294;81;22758;-79
2020/12/27 06:38:56;;;;;;;25.52;13.95;;;;;;;-0.16;82.83;100628.26;1765260;81;21141;-78
2020/12/27 06:41:26;;;;;;;21.23;12.30;;;;;;;-0.17;82.82;100632.03;1765315;81;21233;-78
2020/12/27 06:43:58;;;;;;;21.50;12.58;;;;;;;-0.21;82.78;100627.97;1765170;81;21199;-79
2020/12/27 06:46:26;;;;;;;23.73;13.43;;;;;;;-0.22;82.74;100627.45;1765216;81;21196;-80
2020/12/27 06:49:12;;;;;;;22.37;12.03;;;;;;;-0.17;82.79;100620.39;1762425;79;21827;-80
2020/12/27 06:51:42;;;;;;;20.75;11.75;;;;;;;-0.19;82.75;100606.05;1762454;79;22313;-79
2020/12/27 06:54:10;;;;;;;18.45;11.85;;;;;;;-0.17;82.77;100601.88;1753786;81;21204;-79
2020/12/27 06:56:42;;;;;;;19.77;12.55;;;;;;;-0.17;82.70;100607.45;1746255;80;21238;-79
2020/12/27 06:59:10;;;;;;;20.45;11.65;;;;;;;-0.16;82.77;100602.39;1751920;80;21628;-79
2020/12/27 07:01:37;;;;;;;20.68;11.90;;;;;;;-0.15;82.66;100601.61;1763107;80;21799;-79
2020/12/27 07:04:20;;;;;;;21.87;12.58;;;;;;;-0.16;82.59;100598.51;1746766;80;21199;-79
2020/12/27 07:06:49;;;;;;;21.23;11.53;;;;;;;-0.17;82.52;100597.99;1766383;80;21564;-79
2020/12/27 07:09:26;;;;;;;19.32;11.73;;;;;;;-0.20;82.45;100602.58;1765504;80;21204;-79
2020/12/27 07:12:10;;;;;;;25.85;13.18;;;;;;;-0.21;82.43;100594.34;1739542;80;21172;-79
2020/12/27 07:14:44;;;;;;;21.17;12.35;;;;;;;-0.23;82.42;100592.43;1762897;80;21840;-77
2020/12/27 07:17:11;;;;;;;19.55;12.28;;;;;;;-0.21;82.43;100589.55;1759809;80;21157;-78
2020/12/27 07:19:38;;;;;;;21.15;12.65;;;;;;;-0.21;82.47;100585.29;1758622;80;21216;-78
2020/12/27 07:22:10;;;;;;;24.35;12.85;;;;;;;-0.16;82.41;100593.33;1739380;82;21188;-79
2020/12/27 07:24:39;;;;;;;19.42;12.23;;;;;;;-0.15;82.32;100596.44;1749178;81;21156;-79
2020/12/27 07:27:11;;;;;;;22.27;13.58;;;;;;;-0.16;82.29;100597.63;1743588;82;21906;-75
2020/12/27 07:29:39;;;;;;;26.50;14.40;;;;;;;-0.16;82.30;100595.92;1743289;81;21208;-76
2020/12/27 07:32:07;;;;;;;21.33;13.65;;;;;;;-0.15;82.28;100581.28;1740413;81;21648;-76
2020/12/27 07:34:34;;;;;;;20.88;12.68;;;;;;;-0.14;82.21;100586.97;1747214;82;21661;-79
2020/12/27 07:37:06;;;;;;;29.77;13.80;;;;;;;-0.13;82.24;100578.40;1741177;80;21397;-79
2020/12/27 07:39:57;;;;;;;24.57;13.95;;;;;;;-0.13;82.21;100578.02;1739074;80;21225;-79
2020/12/27 07:42:33;;;;;;;28.57;15.70;;;;;;;-0.10;82.18;100573.44;1739334;82;21196;-79
2020/12/27 07:45:03;;;;;;;25.20;13.90;;;;;;;-0.08;82.16;100571.84;1739167;80;21603;-79
2020/12/27 07:47:30;;;;;;;24.07;13.75;;;;;;;-0.06;82.10;100573.71;1737546;82;21160;-79
2020/12/27 07:50:07;;;;;;;28.02;15.60;;;;;;;-0.03;82.12;100564.87;1693400;82;21152;-79
2020/12/27 07:52:49;;;;;;;30.43;17.10;;;;;;;0.00;82.07;100566.78;1717951;82;22858;-79
2020/12/27 07:55:21;;;;;;;31.52;18.90;;;;;;;0.02;82.00;100566.84;1752993;80;21245;-79
2020/12/27 07:57:48;;;;;;;28.65;16.20;;;;;;;0.04;82.03;100558.41;1758110;80;21603;-79
2020/12/27 08:00:16;;;;;;;27.50;15.63;;;;;;;0.07;81.97;100553.81;1757697;80;21625;-79
2020/12/27 08:02:44;;;;;;;26.37;15.58;;;;;;;0.11;81.93;100550.62;1757910;81;21250;-79
2020/12/27 08:05:12;;;;;;;27.90;16.05;;;;;;;0.15;81.95;100545.75;1757886;81;22857;-79
2020/12/27 08:07:42;;;;;;;30.40;16.85;;;;;;;0.23;81.92;100542.75;1757898;80;21203;-78
2020/12/27 08:10:22;;;;;;;32.35;16.23;;;;;;;0.27;81.86;100548.20;1757926;81;21215;-79
2020/12/27 08:12:55;;;;;;;23.92;14.73;;;;;;;0.32;81.80;100543.30;1758021;80;21201;-76
2020/12/27 08:15:24;;;;;;;24.35;14.53;;;;;;;0.36;81.72;100537.13;1758491;80;21612;-80
2020/12/27 08:17:58;;;;;;;29.80;15.93;;;;;;;0.40;81.67;100527.86;1757684;81;21888;-79
2020/12/27 08:20:50;;;;;;;22.93;15.10;;;;;;;0.50;81.62;100530.20;1778643;79;22365;-81
2020/12/27 08:23:18;;;;;;;26.12;14.95;;;;;;;0.51;81.53;100527.24;1747246;81;21232;-80
2020/12/27 08:25:56;;;;;;;27.75;17.42;;;;;;;0.54;81.46;100527.41;1751874;81;22062;-80
2020/12/27 08:28:24;;;;;;;30.17;17.15;;;;;;;0.56;81.34;100518.03;1722475;81;21665;-80
2020/12/27 08:30:51;;;;;;;31.87;16.23;;;;;;;0.58;81.26;100506.98;1741439;81;21221;-81
2020/12/27 08:33:18;;;;;;;27.62;15.45;;;;;;;0.61;81.17;100515.33;1738334;81;21304;-81
2020/12/27 08:35:49;;;;;;;26.77;14.65;;;;;;;0.64;81.13;100502.95;1693903;83;21203;-80
2020/12/27 08:38:33;;;;;;;26.15;15.53;;;;;;;0.68;81.05;100503.66;1722312;83;21899;-78
2020/12/27 08:41:26;;;;;;;26.33;14.98;;;;;;;0.71;81.01;100494.76;1721576;83;21175;-80
2020/12/27 08:44:07;;;;;;;31.73;16.82;;;;;;;0.73;80.87;100497.03;1722674;83;21548;-78
2020/12/27 08:46:40;;;;;;;38.10;17.05;;;;;;;0.76;80.77;100495.53;1722180;83;21621;-78
2020/12/27 08:49:33;;;;;;;32.95;17.42;;;;;;;0.79;80.80;100502.61;1722203;82;21228;-78
2020/12/27 08:52:07;;;;;;;35.17;17.77;;;;;;;0.81;80.67;100495.82;1722592;83;21900;-78
2020/12/27 08:54:34;;;;;;;31.97;16.40;;;;;;;0.87;80.65;100503.95;1721678;83;21594;-77
2020/12/27 08:57:04;;;;;;;33.08;17.48;;;;;;;0.90;80.58;100506.73;1722247;83;21085;-79
2020/12/27 08:59:31;;;;;;;30.70;15.18;;;;;;;0.97;80.60;100498.91;1722165;83;21198;-78
2020/12/27 09:02:12;;;;;;;35.03;17.17;;;;;;;0.99;80.42;100480.45;1722415;82;21132;-78
2020/12/27 09:04:39;;;;;;;28.65;14.68;;;;;;;1.01;80.40;100483.14;1722138;82;21887;-76
2020/12/27 09:07:06;;;;;;;23.95;13.28;;;;;;;1.04;80.26;100479.44;1751604;80;21203;-79
2020/12/27 09:09:33;;;;;;;23.00;14.33;;;;;;;1.06;80.16;100471.35;1752152;81;21188;-79
2020/12/27 09:12:02;;;;;;;24.20;13.70;;;;;;;1.08;80.17;100478.81;1752254;81;21164;-85
2020/12/27 09:14:37;;;;;;;26.37;12.90;;;;;;;1.13;80.10;100483.46;1746484;80;21262;-77
2020/12/27 09:17:08;;;;;;;23.87;14.07;;;;;;;1.18;80.05;100470.75;1714180;81;21904;-78
2020/12/27 09:19:36;;;;;;;24.77;13.25;;;;;;;1.22;79.92;100484.41;1755448;80;21176;-78
2020/12/27 09:22:04;;;;;;;23.75;12.88;;;;;;;1.22;79.74;100484.41;1760757;81;21227;-78
2020/12/27 09:24:33;;;;;;;21.70;12.33;;;;;;;1.23;79.74;100475.81;1760793;81;21194;-77
2020/12/27 09:27:10;;;;;;;24.27;12.40;;;;;;;1.29;79.63;100472.67;1760739;81;21151;-77
2020/12/27 09:29:38;;;;;;;18.02;11.48;;;;;;;1.30;79.59;100471.88;1760357;81;21709;-77
2020/12/27 09:32:10;;;;;;;18.20;11.25;;;;;;;1.31;79.41;100460.31;1760041;80;21226;-78
2020/12/27 09:34:37;;;;;;;19.75;12.20;;;;;;;1.32;79.33;100462.08;1760157;81;21179;-78
2020/12/27 09:37:17;;;;;;;19.35;10.98;;;;;;;1.34;79.22;100453.98;1760243;81;21175;-78
2020/12/27 09:39:47;;;;;;;17.57;10.20;;;;;;;1.36;79.21;100452.37;1760235;80;21183;-78
2020/12/27 09:42:22;;;;;;;17.70;10.50;;;;;;;1.39;79.03;100449.08;1760094;81;21893;-78
2020/12/27 09:44:50;;;;;;;16.80;9.23;;;;;;;1.41;79.01;100440.05;1760146;80;21228;-78
2020/12/27 09:47:26;;;;;;;17.40;10.30;;;;;;;1.44;78.92;100447.61;1760083;81;21196;-78
2020/12/27 09:50:05;;;;;;;20.65;11.53;;;;;;;1.48;78.90;100439.60;1746866;80;21928;-78
2020/12/27 09:52:34;;;;;;;18.67;9.75;;;;;;;1.52;78.89;100437.66;1746300;80;21201;-78
2020/12/27 09:55:01;;;;;;;16.32;9.73;;;;;;;1.53;78.63;100436.87;1748911;80;21881;-77
2020/12/27 09:57:36;;;;;;;17.98;11.20;;;;;;;1.59;78.68;100432.02;1753535;80;21577;-78
2020/12/27 10:00:05;;;;;;;17.00;10.45;;;;;;;1.64;78.45;100433.59;1774332;80;21630;-78
2020/12/27 10:05:07;;;;;;;19.73;11.85;;;;;;;1.69;78.21;100430.44;1695902;78;65976;-81
2020/12/27 10:07:34;;;;;;;21.70;13.60;;;;;;;1.72;78.21;100414.14;1668199;84;21922;-78
2020/12/27 10:10:05;;;;;;;19.35;11.00;;;;;;;1.78;78.16;100410.56;1658775;84;21582;-81
2020/12/27 10:12:35;;;;;;;21.15;11.33;;;;;;;1.81;78.05;100405.97;1671792;84;21195;-81
2020/12/27 10:15:05;;;;;;;20.72;11.40;;;;;;;1.84;77.84;100404.82;1681445;84;21190;-81
2020/12/27 10:17:33;;;;;;;20.32;11.60;;;;;;;1.85;77.82;100401.02;1657488;84;21242;-81
2020/12/27 10:20:04;;;;;;;23.60;13.28;;;;;;;1.88;77.92;100390.81;1669734;84;22796;-80
2020/12/27 10:22:33;;;;;;;17.12;10.50;;;;;;;1.91;77.71;100393.55;1668805;86;21186;-81
2020/12/27 10:25:00;;;;;;;24.30;11.28;;;;;;;1.94;77.65;100390.25;1662825;84;21612;-81
2020/12/27 10:27:32;;;;;;;19.75;10.78;;;;;;;1.95;77.54;100386.83;1669566;85;21187;-77
2020/12/27 10:29:57;;;;;;;18.32;10.95;;;;;;;1.97;77.52;100387.83;1669168;84;21272;-78
2020/12/27 10:32:25;;;;;;;19.37;10.98;;;;;;;2.00;77.40;100385.38;1669526;85;21920;-81
2020/12/27 10:34:52;;;;;;;21.80;11.60;;;;;;;2.03;77.30;100384.25;1669722;85;21220;-83
2020/12/27 10:37:19;;;;;;;19.07;10.00;;;;;;;2.02;77.15;100373.37;1670051;85;21239;-83
2020/12/27 10:39:49;;;;;;;20.90;11.15;;;;;;;2.06;77.03;100370.53;1663987;84;21189;-83
2020/12/27 10:42:16;;;;;;;17.80;10.30;;;;;;;2.06;76.91;100363.63;1658520;84;21182;-81
2020/12/27 10:44:43;;;;;;;20.88;10.75;;;;;;;2.08;76.79;100359.82;1655025;84;22130;-80
2020/12/27 10:47:10;;;;;;;20.88;11.30;;;;;;;2.07;76.73;100356.34;1671456;85;21164;-83
2020/12/27 10:49:37;;;;;;;21.40;10.55;;;;;;;2.10;76.68;100350.41;1671600;85;21159;-83
2020/12/27 10:52:04;;;;;;;22.45;11.20;;;;;;;2.08;76.58;100351.65;1671616;85;21175;-82
2020/12/27 10:54:31;;;;;;;21.12;11.88;;;;;;;2.11;76.52;100344.41;1671616;85;21652;-82
2020/12/27 10:57:01;;;;;;;28.07;12.20;;;;;;;2.09;76.45;100341.73;1671762;85;21691;-82
2020/12/27 10:59:28;;;;;;;21.15;11.65;;;;;;;2.08;76.30;100338.66;1662690;84;21164;-81
2020/12/27 11:02:03;;;;;;;22.15;12.23;;;;;;;2.10;76.67;100334.45;1639400;86;21633;-81
2020/12/27 11:04:30;;;;;;;22.85;11.20;;;;;;;2.13;76.54;100331.10;1647744;85;21180;-81
2020/12/27 11:06:58;;;;;;;22.50;12.33;;;;;;;2.13;76.52;100338.89;1646396;85;21212;-81
2020/12/27 11:09:26;;;;;;;25.45;14.20;;;;;;;2.13;76.43;100334.58;1652979;86;21929;-82
2020/12/27 11:11:54;;;;;;;26.68;13.45;;;;;;;2.16;76.44;100334.25;1660306;86;21249;-81
2020/12/27 11:14:21;;;;;;;27.07;13.48;;;;;;;2.13;76.10;100313.81;1645970;84;21276;-82
2020/12/27 11:16:48;;;;;;;29.98;15.40;;;;;;;2.09;75.95;100322.67;1632620;86;21217;-82
2020/12/27 11:19:15;;;;;;;38.55;19.87;;;;;;;2.00;75.61;100322.19;1652959;86;21674;-83
2020/12/27 11:21:49;;;;;;;31.75;17.10;;;;;;;1.92;75.76;100329.58;1631480;86;21984;-83
2020/12/27 11:24:16;;;;;;;37.20;20.30;;;;;;;1.87;75.71;100331.03;1631369;87;25677;-82
2020/12/27 11:26:43;;;;;;;29.85;17.10;;;;;;;1.84;75.78;100324.38;1652999;86;21236;-82
2020/12/27 11:29:10;;;;;;;31.82;17.98;;;;;;;1.83;75.77;100319.59;1663397;84;21236;-82
2020/12/27 11:31:37;;;;;;;31.37;16.30;;;;;;;1.81;75.77;100318.63;1663230;86;21734;-83